首页
METAR-TAF:

METAR-TAF

机场 :

Eppley Airfield

奥马哈, 內布拉斯加州, 美国

纬度: 41-18-37N, 经度: 095-53-57W, 海拔: 299米

当前天气观测

该预报发布于40分钟前的17:52 UTC
风速11节,风向西,有时为19节阵风
温度 17°C
湿度 45%
气压 1013 hPa
能見度: 16.1公里
天空无云

METAR: KOMA 311752Z 27011G19KT 10SM CLR 17/05 A2991 RMK AO2 SLP129 T01720050 10172 20061 55001

时间: 13:32 (18:32 UTC)

预报

该预报发布于1小时和12分钟前的17:20 UTC
预报有效从31日的 18点(UTC)到 01日的 18点(UTC)
风速17节,风向西转西南,有时为26节阵风
能見度: 10公里
少量云层高于4000英尺
少量云层高于25000英尺
从 31日的 2000点(UTC)
风速19节,风向西北,有时为28节阵风
能見度: 10公里
少量云层高于5000英尺
多云层高于12000英尺
从 31日的 2300点(UTC)
风速16节,风向西北,有时为25节阵风
能見度: 10公里
少量云层高于12000英尺
从 01日的 0100点(UTC)
风速14节,风向西北,有时为22节阵风
能見度: 10公里
散云层高于25000英尺
从 01日的 0700点(UTC)
风速14节,风向西北
能見度: 10公里
少量云层高于25000英尺

TAF: KOMA 311720Z 3118/0118 25017G26KT P6SM FEW040 FEW250 FM312000 31019G28KT P6SM FEW050 BKN120 FM312300 32016G25KT P6SM FEW120 FM010100 31014G22KT P6SM SCT250 FM010700 32014KT P6SM FEW250

超过4000个机场的气象观测和天气预报(METAR&TAF报告)。

可查询的气象台以黄色和红色小点在地图上表示。

将鼠标移到小点上方,可查看气象台名称。

然后点击查看天气观测和预报。

如需切换地图:点击带黑十字的绿色按钮放大地图;点击带横线的绿色按钮缩小地图;或者点击绿色箭头查看邻近地区的地图。


METAR-TAF: